KRST/RST METAR and TAF weather

Enter ICAO airport designator
Station Type Date Time Source
KRST METAR 2021/06/24 05:54 UTC NOAA

KRST 240554Z 19014G23KT 10SM OVC039 24/19 A2979 RMK AO2 SLP080 T02440194 10278 20239 402830128 58001


Station Type Date Time Source
KRST Decoded METAR 2021/06/24 05:54 UTC NOAA

ROCHESTER INTERNATIONAL AIRPORT , MN, United States (KRST) 43-54N 092-30W 403M
Jun 24, 2021 - 01:54 AM EDT / 2021.06.24 0554 UTC
Wind: from the S (190 degrees) at 16 MPH (14 KT) gusting to 26 MPH (23 KT):0
Visibility: 10 mile(s):0
Sky conditions: overcast
Temperature: 75.9 F (24.4 C)
Dew Point: 66.9 F (19.4 C)
Relative Humidity: 73%
Pressure (altimeter): 29.79 in. Hg (1008 hPa)
Pressure tendency: 0.00 inches (0.1 hPa) lower than three hours ago
ob: KRST 240554Z 19014G23KT 10SM OVC039 24/19 A2979 RMK AO2 SLP080 T02440194 10278 20239 402830128 58001
cycle: 6

Station Type Date Time Source
KRST TAF 2021/06/24 06:22 UTC NOAA

TAF KRST 240520Z 2406/2506 19013KT P6SM SCT040
FM241400 22014G23KT P6SM BKN200
FM241900 25013G22KT P6SM VCTS BKN035CB
FM250200 28006KT P6SM BKN050

Example: see airport list